Time;durP1;ratioP1;P1;durP2;ratioP2;P2;SDS_P1;SDS_P2;PMS_P1;PMS_P2;Temp;Humidity;BMP_temperature;BMP_pressure;BME280_temperature;BME280_humidity;BME280_pressure;Samples;Min_cycle;Max_cycle;Signal;HPM_P1;HPM_P2
2024/02/28 00:00:28;;;;;;;34.77;16.60;;;2.50;99.90;;;;;;5057821;28;20436;-71
2024/02/28 00:02:53;;;;;;;36.17;15.33;;;2.50;99.90;;;;;;5057485;28;20427;-71
2024/02/28 00:05:19;;;;;;;45.60;18.20;;;2.50;99.90;;;;;;5057731;28;20167;-71
2024/02/28 00:07:45;;;;;;;36.60;18.33;;;2.50;99.90;;;;;;5057727;28;20183;-71
2024/02/28 00:10:11;;;;;;;42.67;19.30;;;2.40;99.90;;;;;;5057759;28;20155;-71
2024/02/28 00:12:38;;;;;;;37.57;16.17;;;2.50;99.90;;;;;;5053377;28;20466;-70
2024/02/28 00:15:05;;;;;;;38.63;18.97;;;2.40;99.90;;;;;;5054518;28;20178;-71
2024/02/28 00:17:30;;;;;;;40.10;17.53;;;2.50;99.90;;;;;;5051339;28;20477;-70
2024/02/28 00:19:56;;;;;;;45.90;19.20;;;2.40;99.90;;;;;;5053943;28;20542;-71
2024/02/28 00:22:21;;;;;;;49.23;21.87;;;2.50;99.90;;;;;;5054099;28;20177;-71
2024/02/28 00:24:47;;;;;;;45.50;21.57;;;2.50;99.90;;;;;;5054322;28;20680;-71
2024/02/28 00:27:13;;;;;;;39.60;20.93;;;2.50;99.90;;;;;;5054211;28;20642;-71
2024/02/28 00:29:39;;;;;;;42.23;21.20;;;2.50;99.90;;;;;;5052971;28;20413;-72
2024/02/28 00:32:04;;;;;;;45.47;20.93;;;2.60;99.90;;;;;;5053969;28;20167;-71
2024/02/28 00:34:30;;;;;;;49.53;20.63;;;2.60;99.90;;;;;;5054049;28;20166;-71
2024/02/28 00:36:55;;;;;;;44.60;19.90;;;2.70;99.90;;;;;;5054083;28;20248;-71
2024/02/28 00:39:21;;;;;;;42.93;21.30;;;2.80;99.90;;;;;;5054122;28;20203;-71
2024/02/28 00:41:47;;;;;;;46.93;20.20;;;2.90;99.90;;;;;;5052816;28;20178;-72
2024/02/28 00:44:12;;;;;;;53.37;25.27;;;3.00;99.90;;;;;;5053969;28;20199;-72
2024/02/28 00:46:39;;;;;;;39.17;20.13;;;3.00;99.90;;;;;;5051210;28;20226;-72
2024/02/28 00:49:05;;;;;;;45.30;21.90;;;3.10;99.90;;;;;;5052375;28;20178;-71
2024/02/28 00:51:30;;;;;;;43.30;21.53;;;3.20;99.90;;;;;;5053442;28;20849;-71
2024/02/28 00:53:56;;;;;;;42.60;19.57;;;3.20;99.90;;;;;;5053609;28;20198;-71
2024/02/28 00:56:21;;;;;;;39.60;19.60;;;3.20;99.90;;;;;;5053452;28;20236;-71
2024/02/28 00:58:47;;;;;;;41.83;18.53;;;3.10;99.90;;;;;;5053212;28;20256;-71
2024/02/28 01:01:13;;;;;;;48.33;20.00;;;3.10;99.90;;;;;;5053378;28;20248;-71
2024/02/28 01:03:39;;;;;;;47.97;21.30;;;3.00;99.90;;;;;;5052166;28;20167;-70
2024/02/28 01:06:04;;;;;;;52.83;22.30;;;2.80;99.90;;;;;;5053620;28;20163;-71
2024/02/28 01:08:30;;;;;;;46.40;21.07;;;2.80;99.90;;;;;;5052023;28;20519;-72
2024/02/28 01:10:55;;;;;;;43.33;18.83;;;2.70;99.90;;;;;;5053441;28;20221;-71
2024/02/28 01:13:21;;;;;;;41.60;19.70;;;2.50;99.90;;;;;;5053137;28;20163;-70
2024/02/28 01:15:47;;;;;;;36.80;18.10;;;2.50;99.90;;;;;;5053010;28;20179;-71
2024/02/28 01:18:12;;;;;;;40.60;17.53;;;2.40;99.90;;;;;;5050156;28;20203;-71
2024/02/28 01:20:38;;;;;;;39.07;17.20;;;2.30;99.90;;;;;;5051872;28;20171;-71
2024/02/28 01:23:03;;;;;;;36.80;16.90;;;2.20;99.90;;;;;;5052476;28;20163;-71
2024/02/28 01:25:29;;;;;;;32.80;16.17;;;2.10;99.90;;;;;;5052498;28;20534;-71
2024/02/28 01:27:56;;;;;;;34.33;15.80;;;2.00;99.90;;;;;;5052884;28;20270;-71
2024/02/28 01:30:22;;;;;;;36.43;16.37;;;1.90;99.90;;;;;;5053118;28;20425;-71
2024/02/28 01:32:47;;;;;;;41.60;18.93;;;1.90;99.90;;;;;;5052778;28;20932;-71
2024/02/28 01:35:13;;;;;;;35.70;15.40;;;1.80;99.90;;;;;;5052876;28;20166;-71
2024/02/28 01:37:39;;;;;;;34.40;14.87;;;1.80;99.90;;;;;;5052849;28;20179;-71
2024/02/28 01:40:05;;;;;;;29.63;14.97;;;1.70;99.90;;;;;;5052919;28;20171;-70
2024/02/28 01:42:30;;;;;;;37.33;16.63;;;1.70;99.90;;;;;;5052412;28;20163;-71
2024/02/28 01:44:56;;;;;;;37.20;17.47;;;1.70;99.90;;;;;;5052813;28;20416;-71
2024/02/28 01:47:21;;;;;;;45.13;17.80;;;1.60;99.90;;;;;;5052736;28;20558;-70
2024/02/28 01:49:48;;;;;;;42.23;19.30;;;1.60;99.90;;;;;;5048576;28;20222;-71
2024/02/28 01:52:14;;;;;;;38.00;18.53;;;1.60;99.90;;;;;;5052132;28;20182;-71
2024/02/28 01:54:41;;;;;;;47.90;17.20;;;1.60;99.90;;;;;;5052442;28;20405;-71
2024/02/28 01:57:07;;;;;;;36.27;16.10;;;1.60;99.90;;;;;;5052506;28;20433;-70
2024/02/28 01:59:34;;;;;;;35.13;17.83;;;1.60;99.90;;;;;;5052584;28;20507;-71
2024/02/28 02:02:00;;;;;;;40.63;15.87;;;1.50;99.90;;;;;;5052249;28;20406;-70
2024/02/28 02:04:25;;;;;;;40.03;17.73;;;1.60;99.90;;;;;;5052538;28;20397;-71
2024/02/28 02:06:54;;;;;;;33.37;15.47;;;1.60;99.90;;;;;;5052417;28;20183;-70
2024/02/28 02:09:20;;;;;;;45.23;18.27;;;1.60;99.90;;;;;;5052424;28;20559;-72
2024/02/28 02:11:45;;;;;;;48.47;22.07;;;1.70;99.90;;;;;;5052076;28;20401;-71
2024/02/28 02:14:11;;;;;;;42.57;19.73;;;1.70;99.90;;;;;;5051007;28;20413;-71
2024/02/28 02:16:36;;;;;;;39.70;18.73;;;1.70;99.90;;;;;;5049942;28;20556;-71
2024/02/28 02:19:03;;;;;;;42.97;20.37;;;1.70;99.90;;;;;;5051869;28;20218;-71
2024/02/28 02:21:37;;;;;;;43.57;17.17;;;1.70;99.90;;;;;;5051903;28;20159;-71
2024/02/28 02:24:02;;;;;;;53.73;21.73;;;1.70;99.90;;;;;;5052097;28;20937;-71
2024/02/28 02:26:28;;;;;;;37.53;18.07;;;1.70;99.90;;;;;;5051980;28;20448;-71
2024/02/28 02:28:54;;;;;;;35.40;15.60;;;1.70;99.90;;;;;;5052091;28;20167;-70
2024/02/28 02:31:19;;;;;;;39.73;17.70;;;1.70;99.90;;;;;;5052047;28;20240;-71
2024/02/28 02:33:45;;;;;;;37.70;18.93;;;1.70;99.90;;;;;;5051793;28;20687;-71
2024/02/28 02:36:10;;;;;;;44.97;17.90;;;1.60;99.90;;;;;;5051604;28;20167;-70
2024/02/28 02:38:36;;;;;;;57.33;21.50;;;1.60;99.90;;;;;;5051718;28;20202;-71
2024/02/28 02:41:01;;;;;;;41.70;19.10;;;1.60;99.90;;;;;;5051824;28;20163;-71
2024/02/28 02:43:27;;;;;;;38.80;16.43;;;1.60;99.90;;;;;;5051612;28;20179;-71
2024/02/28 02:45:52;;;;;;;42.60;17.50;;;1.60;99.90;;;;;;5051896;28;20163;-71
2024/02/28 02:48:18;;;;;;;44.03;19.40;;;1.50;99.90;;;;;;5049246;28;20720;-72
2024/02/28 02:50:43;;;;;;;40.07;18.07;;;1.50;99.90;;;;;;5050843;28;20440;-71
2024/02/28 02:53:10;;;;;;;44.07;16.00;;;1.50;99.90;;;;;;5051297;28;20183;-70
2024/02/28 02:55:36;;;;;;;33.50;16.97;;;1.40;99.90;;;;;;5051479;28;20245;-72
2024/02/28 02:58:02;;;;;;;38.40;17.63;;;1.40;99.90;;;;;;5050137;28;20549;-71
2024/02/28 03:00:28;;;;;;;43.53;19.30;;;1.40;99.90;;;;;;5051006;28;20159;-71
2024/02/28 03:02:53;;;;;;;42.70;17.17;;;1.40;99.90;;;;;;5051352;28;20928;-71
2024/02/28 03:05:19;;;;;;;45.37;19.90;;;1.50;99.90;;;;;;5051597;28;20408;-71
2024/02/28 03:07:45;;;;;;;51.63;18.33;;;1.60;99.90;;;;;;5051538;28;20194;-70
2024/02/28 03:10:10;;;;;;;39.63;16.20;;;1.70;99.90;;;;;;5052071;28;20530;-71
2024/02/28 03:12:36;;;;;;;43.60;16.97;;;1.80;99.90;;;;;;5051405;28;20362;-71
2024/02/28 03:15:02;;;;;;;50.00;20.10;;;2.00;99.90;;;;;;5050252;28;20170;-71
2024/02/28 03:17:28;;;;;;;38.03;16.30;;;2.10;99.90;;;;;;5049021;28;20193;-71
2024/02/28 03:19:54;;;;;;;35.63;15.97;;;2.20;99.90;;;;;;5051206;28;20452;-71
2024/02/28 03:22:19;;;;;;;52.47;20.80;;;2.30;99.90;;;;;;5051196;28;20608;-71
2024/02/28 03:24:45;;;;;;;38.03;17.10;;;2.40;99.90;;;;;;5051377;28;20190;-71
2024/02/28 03:27:10;;;;;;;40.30;16.70;;;2.60;99.90;;;;;;5051209;28;20266;-71
2024/02/28 03:29:36;;;;;;;49.50;20.43;;;2.60;99.90;;;;;;5051653;28;20171;-71
2024/02/28 03:32:01;;;;;;;39.47;17.67;;;2.70;99.90;;;;;;5051104;28;20225;-70
2024/02/28 03:34:27;;;;;;;37.23;17.27;;;2.80;99.90;;;;;;5051310;28;20191;-71
2024/02/28 03:36:52;;;;;;;29.47;15.30;;;2.90;99.90;;;;;;5051188;28;20183;-71
2024/02/28 03:39:18;;;;;;;37.47;16.90;;;2.90;99.90;;;;;;5051656;28;20223;-71
2024/02/28 03:41:43;;;;;;;34.37;16.27;;;3.00;99.90;;;;;;5051092;28;20217;-71
2024/02/28 03:44:09;;;;;;;39.37;17.33;;;3.00;99.90;;;;;;5051166;28;20175;-71
2024/02/28 03:46:35;;;;;;;38.43;16.13;;;2.90;99.90;;;;;;5051155;28;20183;-71
2024/02/28 03:49:00;;;;;;;45.97;19.50;;;2.90;99.90;;;;;;5052606;28;20422;-71
2024/02/28 03:51:26;;;;;;;37.10;17.37;;;2.90;99.90;;;;;;5054474;28;20613;-71
2024/02/28 03:53:51;;;;;;;43.13;20.47;;;2.90;99.90;;;;;;5054658;28;20210;-71
2024/02/28 03:56:26;;;;;;;61.30;21.57;;;2.90;99.90;;;;;;5054403;28;20277;-72
2024/02/28 03:58:53;;;;;;;43.23;18.70;;;3.00;99.90;;;;;;5054755;28;20201;-71
2024/02/28 04:01:19;;;;;;;44.20;21.17;;;3.00;99.90;;;;;;5054856;28;20401;-71
2024/02/28 04:03:44;;;;;;;39.93;17.67;;;3.00;99.90;;;;;;5054558;28;20927;-72
2024/02/28 04:06:11;;;;;;;50.77;19.43;;;3.00;99.90;;;;;;5053262;28;20412;-71
2024/02/28 04:08:36;;;;;;;41.97;18.97;;;3.00;99.90;;;;;;5054401;28;20190;-71
2024/02/28 04:11:02;;;;;;;45.97;18.77;;;3.10;99.90;;;;;;5054550;28;20802;-71
2024/02/28 04:13:28;;;;;;;49.77;20.30;;;3.10;99.90;;;;;;5054137;28;20171;-71
2024/02/28 04:15:53;;;;;;;49.47;20.83;;;3.00;99.90;;;;;;5054823;28;20167;-71
2024/02/28 04:18:19;;;;;;;49.27;19.30;;;3.10;99.90;;;;;;5052191;28;20198;-72
2024/02/28 04:20:44;;;;;;;49.20;20.80;;;3.20;99.90;;;;;;5050847;28;20196;-71
2024/02/28 04:23:10;;;;;;;48.30;20.77;;;3.30;99.90;;;;;;5054092;28;20163;-71
2024/02/28 04:25:35;;;;;;;55.63;21.27;;;3.30;99.90;;;;;;5054285;28;20159;-71
2024/02/28 04:28:02;;;;;;;48.10;19.20;;;3.40;99.90;;;;;;5054264;28;20276;-72
2024/02/28 04:30:28;;;;;;;43.87;18.70;;;3.50;99.90;;;;;;5052898;28;20174;-71
2024/02/28 04:32:53;;;;;;;46.23;21.20;;;3.50;99.90;;;;;;5054050;28;20397;-71
2024/02/28 04:35:19;;;;;;;48.50;19.17;;;3.40;99.90;;;;;;5054293;28;20557;-71
2024/02/28 04:37:45;;;;;;;42.90;17.00;;;3.50;99.90;;;;;;5053971;28;20210;-71
2024/02/28 04:40:12;;;;;;;46.43;18.93;;;3.40;99.90;;;;;;5054205;28;20170;-71
2024/02/28 04:42:37;;;;;;;48.70;20.77;;;3.40;99.90;;;;;;5052761;28;20410;-71
2024/02/28 04:45:04;;;;;;;37.30;18.90;;;3.30;99.90;;;;;;5054121;28;20539;-71
2024/02/28 04:47:30;;;;;;;38.37;15.90;;;3.10;99.90;;;;;;5054014;28;20563;-71
2024/02/28 04:49:56;;;;;;;48.80;17.53;;;3.00;99.90;;;;;;5051638;28;20426;-71
2024/02/28 04:52:21;;;;;;;43.10;21.70;;;2.90;99.90;;;;;;5053341;28;21062;-71
2024/02/28 04:54:47;;;;;;;54.30;19.17;;;2.90;99.90;;;;;;5053851;28;20516;-71
2024/02/28 04:57:13;;;;;;;56.63;18.70;;;2.90;99.90;;;;;;5053774;28;20198;-71
2024/02/28 04:59:38;;;;;;;45.27;15.70;;;2.90;99.90;;;;;;5052202;28;20195;-71
2024/02/28 05:02:04;;;;;;;38.90;15.17;;;2.80;99.90;;;;;;5053561;28;20713;-71
2024/02/28 05:04:29;;;;;;;43.43;16.70;;;2.80;99.90;;;;;;5053694;28;20566;-71
2024/02/28 05:06:55;;;;;;;32.50;15.13;;;2.70;99.90;;;;;;5053534;28;20540;-70
2024/02/28 05:09:20;;;;;;;35.13;16.17;;;2.70;99.90;;;;;;5053597;28;20171;-71
2024/02/28 05:11:46;;;;;;;42.67;16.20;;;2.60;99.90;;;;;;5053410;28;20163;-71
2024/02/28 05:14:11;;;;;;;31.70;14.03;;;2.60;99.90;;;;;;5052134;28;20658;-71
2024/02/28 05:16:37;;;;;;;44.60;15.03;;;2.50;99.90;;;;;;5050867;28;20190;-71
2024/02/28 05:19:04;;;;;;;33.00;14.73;;;2.50;99.90;;;;;;5052243;28;20202;-71
2024/02/28 05:21:29;;;;;;;36.63;14.60;;;2.50;99.90;;;;;;5052918;28;20522;-71
2024/02/28 05:23:55;;;;;;;43.80;15.87;;;2.50;99.90;;;;;;5053311;28;20409;-71
2024/02/28 05:26:20;;;;;;;26.80;12.00;;;2.60;99.90;;;;;;5053421;28;20288;-71
2024/02/28 05:28:46;;;;;;;41.23;15.23;;;2.70;99.90;;;;;;5053121;28;20178;-71
2024/02/28 05:31:26;;;;;;;33.57;13.30;;;2.70;99.90;;;;;;5053186;28;20256;-71
2024/02/28 05:33:54;;;;;;;43.70;17.63;;;2.80;99.90;;;;;;5051694;28;20262;-71
2024/02/28 05:36:23;;;;;;;40.13;14.57;;;2.80;99.90;;;;;;5051720;28;20482;-71
2024/02/28 05:38:48;;;;;;;37.60;17.40;;;2.90;99.90;;;;;;5052723;28;20979;-71
2024/02/28 05:41:16;;;;;;;41.53;16.80;;;2.90;99.90;;;;;;5052855;28;20405;-71
2024/02/28 05:43:42;;;;;;;47.50;18.57;;;2.90;99.90;;;;;;5052602;28;20908;-71
2024/02/28 05:46:07;;;;;;;46.50;18.03;;;2.80;99.90;;;;;;5052874;28;20408;-71
2024/02/28 05:48:33;;;;;;;49.30;14.83;;;2.80;99.90;;;;;;5050913;28;20186;-71
2024/02/28 05:51:01;;;;;;;48.80;18.00;;;2.90;99.90;;;;;;5050653;28;20305;-72
2024/02/28 05:53:26;;;;;;;49.60;16.60;;;2.90;99.90;;;;;;5051005;28;20186;-71
2024/02/28 05:55:56;;;;;;;43.80;18.57;;;2.80;99.90;;;;;;5051038;28;20807;-71
2024/02/28 05:58:22;;;;;;;52.00;17.03;;;2.90;99.90;;;;;;5052337;28;20453;-72
2024/02/28 06:00:48;;;;;;;44.50;18.70;;;3.00;99.90;;;;;;5051166;28;20619;-71
2024/02/28 06:03:13;;;;;;;50.97;18.33;;;3.00;99.90;;;;;;5050772;28;20401;-71
2024/02/28 06:05:39;;;;;;;50.10;16.30;;;3.10;99.90;;;;;;5052798;28;20245;-72
2024/02/28 06:08:05;;;;;;;38.03;15.07;;;3.10;99.90;;;;;;5052315;28;20199;-72
2024/02/28 06:10:30;;;;;;;56.07;18.50;;;3.10;99.90;;;;;;5051771;28;20221;-71
2024/02/28 06:12:56;;;;;;;58.43;19.10;;;3.20;99.90;;;;;;5050768;28;20417;-72
2024/02/28 06:15:21;;;;;;;50.93;18.83;;;3.30;99.90;;;;;;5052360;28;20209;-72
2024/02/28 06:17:47;;;;;;;57.00;17.30;;;3.30;99.90;;;;;;5050681;28;20190;-71
2024/02/28 06:20:12;;;;;;;41.17;16.60;;;3.30;99.90;;;;;;5051665;28;20163;-72
2024/02/28 06:22:38;;;;;;;57.33;21.53;;;3.40;99.90;;;;;;5051725;28;20167;-72
2024/02/28 06:25:07;;;;;;;48.37;17.30;;;3.50;99.90;;;;;;5052076;28;20190;-72
2024/02/28 06:27:33;;;;;;;50.57;17.67;;;3.50;99.90;;;;;;5052115;28;20236;-72
2024/02/28 06:29:59;;;;;;;59.93;19.70;;;3.50;99.90;;;;;;5052049;28;20892;-71
2024/02/28 06:32:25;;;;;;;36.07;18.40;;;3.30;99.90;;;;;;5051661;28;20171;-71
2024/02/28 06:34:50;;;;;;;38.43;15.70;;;3.30;99.90;;;;;;5052265;28;20908;-72
2024/02/28 06:37:16;;;;;;;41.97;14.93;;;3.40;99.90;;;;;;5051964;28;20252;-71
2024/02/28 06:39:41;;;;;;;59.47;18.40;;;3.30;99.90;;;;;;5050652;28;20199;-72
2024/02/28 06:42:07;;;;;;;49.37;18.53;;;3.20;99.90;;;;;;5051724;28;20242;-72
2024/02/28 06:44:33;;;;;;;43.07;17.83;;;3.30;99.90;;;;;;5051857;28;20250;-72
2024/02/28 06:46:58;;;;;;;52.87;18.93;;;3.20;99.90;;;;;;5051682;28;20849;-72
2024/02/28 06:49:24;;;;;;;41.53;17.37;;;3.20;99.90;;;;;;5051791;28;20163;-72
2024/02/28 06:51:49;;;;;;;40.20;15.70;;;3.20;99.90;;;;;;5049548;28;20179;-72
2024/02/28 06:54:15;;;;;;;47.60;15.70;;;3.20;99.90;;;;;;5051748;28;20175;-72
2024/02/28 06:56:40;;;;;;;54.07;18.13;;;3.30;99.90;;;;;;5051494;28;20194;-72
2024/02/28 06:59:06;;;;;;;49.10;17.77;;;3.40;99.90;;;;;;5049764;28;20566;-73
2024/02/28 07:01:32;;;;;;;57.07;19.67;;;3.50;99.90;;;;;;5050011;28;20907;-72
2024/02/28 07:03:58;;;;;;;58.10;20.93;;;3.50;99.90;;;;;;5050385;28;20405;-72
2024/02/28 07:06:23;;;;;;;66.47;22.17;;;3.70;99.90;;;;;;5051665;28;20173;-72
2024/02/28 07:08:49;;;;;;;41.77;17.07;;;3.70;99.90;;;;;;5051455;28;20166;-72
2024/02/28 07:11:15;;;;;;;70.13;21.20;;;3.90;99.90;;;;;;5051447;28;20182;-72
2024/02/28 07:13:41;;;;;;;62.93;20.80;;;3.90;99.90;;;;;;5051331;28;20171;-72
2024/02/28 07:16:06;;;;;;;47.17;18.23;;;4.00;99.90;;;;;;5051440;28;20408;-72
2024/02/28 07:18:33;;;;;;;59.67;20.50;;;4.00;99.90;;;;;;5044196;28;20214;-72
2024/02/28 07:20:58;;;;;;;73.10;23.37;;;4.10;99.90;;;;;;5044538;28;20630;-72
2024/02/28 07:23:24;;;;;;;52.33;17.13;;;4.20;99.90;;;;;;5055087;28;20421;-72
2024/02/28 07:25:50;;;;;;;69.90;21.77;;;4.40;99.90;;;;;;5055440;28;20177;-71
2024/02/28 07:28:15;;;;;;;55.07;20.63;;;4.60;99.90;;;;;;5055427;28;20425;-71
2024/02/28 07:30:42;;;;;;;62.57;22.87;;;4.80;99.90;;;;;;5055294;28;20714;-73
2024/02/28 07:33:08;;;;;;;51.10;19.57;;;5.00;99.90;;;;;;5054608;28;20178;-72
2024/02/28 07:35:46;;;;;;;43.17;18.07;;;5.20;99.90;;;;;;5055198;28;20420;-71
2024/02/28 07:38:12;;;;;;;65.43;22.27;;;5.60;99.90;;;;;;5053793;28;20817;-72
2024/02/28 07:40:38;;;;;;;58.90;21.17;;;5.90;99.90;;;;;;5055335;28;20401;-71
2024/02/28 07:43:03;;;;;;;71.93;24.17;;;6.30;99.90;;;;;;5054936;28;20166;-67
2024/02/28 07:45:29;;;;;;;72.27;21.57;;;6.50;99.90;;;;;;5055065;28;20174;-68
2024/02/28 07:47:54;;;;;;;44.97;18.63;;;6.50;99.90;;;;;;5055109;28;20187;-67
2024/02/28 07:50:20;;;;;;;58.37;21.93;;;6.60;99.90;;;;;;5045212;28;20179;-67
2024/02/28 07:52:45;;;;;;;47.57;19.10;;;6.80;99.90;;;;;;5051629;28;20197;-67
2024/02/28 07:55:11;;;;;;;55.17;22.73;;;7.10;99.90;;;;;;5054848;28;20167;-68
2024/02/28 07:57:36;;;;;;;54.13;23.43;;;7.50;99.90;;;;;;5054601;28;20186;-67
2024/02/28 08:00:03;;;;;;;49.00;19.77;;;7.80;99.90;;;;;;5054732;28;20666;-68
2024/02/28 08:02:28;;;;;;;62.13;25.20;;;8.20;99.90;;;;;;5054664;28;20178;-68
2024/02/28 08:04:54;;;;;;;62.13;21.90;;;8.40;99.90;;;;;;5054855;28;20409;-67
2024/02/28 08:07:19;;;;;;;56.50;23.43;;;8.70;99.90;;;;;;5054621;28;20719;-68
2024/02/28 08:09:45;;;;;;;71.47;22.17;;;8.90;99.90;;;;;;5054825;28;20171;-67
2024/02/28 08:12:10;;;;;;;44.23;19.87;;;9.00;99.90;;;;;;5054341;28;20638;-68
2024/02/28 08:14:36;;;;;;;52.73;22.23;;;9.00;99.90;;;;;;5053347;28;20181;-66
2024/02/28 08:17:01;;;;;;;50.40;21.57;;;8.90;99.90;;;;;;5054110;28;20197;-67
2024/02/28 08:19:27;;;;;;;50.73;21.87;;;8.50;99.90;;;;;;5044103;28;20199;-68
2024/02/28 08:21:52;;;;;;;56.07;22.93;;;8.40;99.90;;;;;;5054114;28;20171;-67
2024/02/28 08:24:18;;;;;;;56.50;20.80;;;8.40;99.90;;;;;;5054448;28;20221;-68
2024/02/28 08:26:44;;;;;;;49.10;21.97;;;8.30;99.90;;;;;;5054206;28;20658;-68
2024/02/28 08:29:09;;;;;;;52.13;21.87;;;8.40;99.90;;;;;;5054073;28;20178;-67
2024/02/28 08:31:43;;;;;;;56.00;21.40;;;8.70;99.90;;;;;;5054338;28;20409;-68
2024/02/28 08:34:09;;;;;;;51.23;22.17;;;8.70;99.90;;;;;;5040022;28;20214;-67
2024/02/28 08:36:35;;;;;;;60.87;21.50;;;8.70;99.90;;;;;;5044446;28;20425;-67
2024/02/28 08:39:01;;;;;;;44.57;20.60;;;8.60;99.90;;;;;;5053854;28;20194;-67
2024/02/28 08:41:26;;;;;;;39.77;19.87;;;8.70;99.90;;;;;;5053768;28;20958;-68
2024/02/28 08:43:52;;;;;;;53.60;21.60;;;8.70;99.90;;;;;;5045424;28;20182;-68
2024/02/28 08:46:17;;;;;;;44.50;20.00;;;8.80;99.90;;;;;;5052727;28;20174;-70
2024/02/28 08:48:43;;;;;;;46.83;19.40;;;8.70;99.90;;;;;;5053756;28;20542;-70
2024/02/28 08:51:08;;;;;;;54.13;21.90;;;8.90;99.90;;;;;;5053904;28;20163;-68
2024/02/28 08:53:34;;;;;;;45.40;22.40;;;9.00;99.90;;;;;;5052271;28;20183;-69
2024/02/28 08:55:59;;;;;;;54.13;22.00;;;9.00;99.90;;;;;;5053817;28;20182;-69
2024/02/28 08:58:25;;;;;;;49.77;21.03;;;9.20;99.90;;;;;;5053706;28;20203;-70
2024/02/28 09:00:51;;;;;;;40.27;20.20;;;9.20;99.90;;;;;;5053752;28;20183;-69
2024/02/28 09:03:16;;;;;;;42.27;20.63;;;9.60;99.90;;;;;;5052234;28;20173;-69
2024/02/28 09:05:42;;;;;;;45.70;22.20;;;9.80;99.90;;;;;;5053739;28;20167;-69
2024/02/28 09:08:07;;;;;;;46.97;22.23;;;10.50;99.90;;;;;;5054070;28;20191;-70
2024/02/28 09:10:34;;;;;;;45.40;19.53;;;11.50;99.90;;;;;;5053562;28;20170;-69
2024/02/28 09:13:00;;;;;;;39.30;19.63;;;12.60;99.90;;;;;;5053247;28;20169;-70
2024/02/28 09:15:25;;;;;;;39.43;21.00;;;13.60;99.90;;;;;;5053458;28;20397;-69
2024/02/28 09:17:51;;;;;;;36.43;19.20;;;14.30;99.90;;;;;;5053515;28;20203;-68
2024/02/28 09:20:17;;;;;;;39.03;18.37;;;14.60;99.90;;;;;;5053387;28;20244;-69
2024/02/28 09:22:42;;;;;;;37.10;20.30;;;14.90;99.90;;;;;;5053142;28;20529;-70
2024/02/28 09:25:08;;;;;;;33.10;18.00;;;14.50;99.90;;;;;;5052000;28;20171;-69
2024/02/28 09:27:35;;;;;;;32.43;18.60;;;14.80;99.90;;;;;;5053265;28;20190;-69
2024/02/28 09:30:02;;;;;;;28.83;15.90;;;15.00;99.90;;;;;;5053206;28;20501;-70
2024/02/28 09:32:28;;;;;;;33.57;19.40;;;14.70;99.90;;;;;;5051655;28;20421;-69
2024/02/28 09:34:53;;;;;;;27.73;17.50;;;15.10;98.70;;;;;;5053180;28;20416;-70
2024/02/28 09:37:21;;;;;;;31.57;18.03;;;16.00;99.90;;;;;;5053094;28;20229;-71
2024/02/28 09:39:46;;;;;;;32.63;17.50;;;16.60;94.40;;;;;;5052909;28;20550;-69
2024/02/28 09:42:13;;;;;;;29.07;18.20;;;16.60;85.00;;;;;;5052955;28;20417;-69
2024/02/28 09:44:39;;;;;;;33.60;19.90;;;16.30;74.10;;;;;;5050720;28;20171;-69
2024/02/28 09:47:05;;;;;;;37.80;17.97;;;16.50;80.90;;;;;;5052808;28;20550;-70
2024/02/28 09:49:32;;;;;;;31.87;18.30;;;16.70;69.10;;;;;;5052887;28;20445;-70
2024/02/28 09:51:58;;;;;;;33.50;17.33;;;17.00;65.10;;;;;;5051178;28;20182;-68
2024/02/28 09:54:25;;;;;;;27.60;17.17;;;17.30;62.60;;;;;;5052798;28;20397;-69
2024/02/28 09:56:51;;;;;;;31.30;17.93;;;17.40;62.10;;;;;;5052621;28;20836;-70
2024/02/28 09:59:18;;;;;;;33.20;17.40;;;17.40;57.00;;;;;;5052521;28;20453;-70
2024/02/28 10:01:47;;;;;;;26.30;16.20;;;17.40;58.60;;;;;;5052437;28;20497;-68
2024/02/28 10:04:13;;;;;;;32.27;17.40;;;18.00;60.80;;;;;;5052562;28;20413;-69
2024/02/28 10:06:40;;;;;;;25.00;16.90;;;18.50;56.60;;;;;;5051181;28;20432;-69
2024/02/28 10:09:07;;;;;;;28.37;17.17;;;19.10;55.40;;;;;;5052465;28;20424;-70
2024/02/28 10:11:33;;;;;;;27.53;17.40;;;19.60;52.80;;;;;;5052243;28;20405;-70
2024/02/28 10:13:59;;;;;;;26.50;17.70;;;19.50;49.70;;;;;;5052278;28;20409;-70
2024/02/28 10:16:25;;;;;;;28.33;15.57;;;20.20;50.40;;;;;;5052316;28;20901;-70
2024/02/28 10:18:50;;;;;;;24.30;16.40;;;21.50;49.00;;;;;;5052318;28;20536;-70
2024/02/28 10:21:16;;;;;;;25.03;16.70;;;22.90;47.80;;;;;;5052283;28;20841;-69
2024/02/28 10:23:42;;;;;;;21.50;15.80;;;24.70;45.90;;;;;;5051969;28;20189;-70
2024/02/28 10:26:11;;;;;;;23.90;16.40;;;26.20;42.20;;;;;;5050957;28;20531;-69
2024/02/28 10:28:41;;;;;;;25.20;17.10;;;27.30;39.50;;;;;;5052057;28;20183;-69
2024/02/28 10:31:10;;;;;;;24.00;17.00;;;26.70;34.70;;;;;;5052094;28;20792;-69
2024/02/28 10:33:36;;;;;;;20.40;15.10;;;27.10;34.50;;;;;;5051906;28;20485;-69
2024/02/28 10:36:05;;;;;;;25.33;18.13;;;27.80;34.10;;;;;;5052023;28;20486;-69
2024/02/28 10:38:33;;;;;;;18.83;14.37;;;28.20;33.70;;;;;;5050551;28;20214;-69
2024/02/28 10:41:00;;;;;;;20.80;14.50;;;29.20;34.10;;;;;;5051916;28;20401;-69
2024/02/28 10:43:29;;;;;;;24.97;17.90;;;30.00;32.00;;;;;;5050445;28;20410;-70
2024/02/28 10:45:59;;;;;;;26.87;20.33;;;30.50;30.80;;;;;;5052021;28;20406;-69
2024/02/28 10:48:25;;;;;;;24.67;19.10;;;30.80;30.30;;;;;;5051874;28;20994;-69
2024/02/28 10:50:51;;;;;;;27.60;20.37;;;31.50;30.90;;;;;;5050586;28;20425;-69
2024/02/28 10:53:21;;;;;;;27.97;20.77;;;31.70;29.60;;;;;;5051553;28;20484;-69
2024/02/28 10:55:48;;;;;;;31.10;23.10;;;30.90;28.80;;;;;;5051485;28;20958;-69
2024/02/28 10:58:15;;;;;;;31.13;22.93;;;30.70;28.70;;;;;;5051550;28;20441;-70
2024/02/28 11:00:44;;;;;;;29.63;20.10;;;30.60;28.60;;;;;;5050574;28;20415;-70
2024/02/28 11:03:10;;;;;;;25.70;17.57;;;30.80;28.70;;;;;;5051417;28;20937;-69
2024/02/28 11:05:41;;;;;;;23.43;16.60;;;31.90;29.60;;;;;;5051860;28;20434;-70
2024/02/28 11:08:10;;;;;;;16.03;13.50;;;32.50;28.20;;;;;;5051638;28;20452;-70
2024/02/28 11:10:41;;;;;;;13.60;10.73;;;32.50;26.80;;;;;;5051732;28;20405;-70
2024/02/28 11:13:08;;;;;;;21.50;15.20;;;32.00;26.10;;;;;;5031870;28;20491;-69
2024/02/28 11:15:33;;;;;;;17.50;14.10;;;31.20;26.30;;;;;;5034164;28;20424;-69
2024/02/28 11:18:09;;;;;;;21.63;17.30;;;30.90;27.30;;;;;;5044422;28;21028;-69
2024/02/28 11:20:35;;;;;;;17.57;14.00;;;31.40;28.20;;;;;;5042787;28;20194;-69
2024/02/28 11:23:01;;;;;;;18.00;14.73;;;32.30;28.10;;;;;;5051285;28;20454;-70
2024/02/28 11:25:26;;;;;;;22.37;16.03;;;32.50;26.80;;;;;;5050281;28;20170;-70
2024/02/28 11:27:52;;;;;;;16.63;12.70;;;32.60;26.10;;;;;;5051423;28;20431;-70
2024/02/28 11:30:17;;;;;;;15.70;12.97;;;32.90;25.80;;;;;;5051281;28;20193;-69
2024/02/28 11:32:44;;;;;;;18.20;14.70;;;33.80;25.80;;;;;;5049959;28;20182;-70
2024/02/28 11:35:11;;;;;;;15.70;12.17;;;34.20;25.10;;;;;;5051468;28;20629;-68
2024/02/28 11:37:39;;;;;;;19.70;14.97;;;34.40;24.80;;;;;;5051382;28;20452;-70
2024/02/28 11:40:08;;;;;;;21.37;15.97;;;34.10;23.50;;;;;;5051227;28;20456;-69
2024/02/28 11:42:34;;;;;;;19.37;16.20;;;34.00;23.20;;;;;;5051113;28;20405;-69
2024/02/28 11:45:03;;;;;;;20.20;16.53;;;33.50;23.60;;;;;;5046263;28;20819;-69
2024/02/28 11:47:29;;;;;;;19.83;16.67;;;33.80;23.80;;;;;;5051183;28;20199;-70
2024/02/28 11:49:58;;;;;;;23.30;15.20;;;34.80;24.80;;;;;;5051162;28;20421;-69
2024/02/28 11:52:25;;;;;;;17.43;13.77;;;35.60;24.90;;;;;;5046052;28;20441;-69
2024/02/28 11:54:51;;;;;;;25.43;14.83;;;36.60;25.40;;;;;;5048838;28;20989;-69
2024/02/28 11:57:17;;;;;;;19.03;13.50;;;37.30;24.20;;;;;;5042429;28;20775;-69
2024/02/28 11:59:45;;;;;;;20.60;15.93;;;37.60;23.90;;;;;;5044558;28;20573;-69
2024/02/28 12:02:15;;;;;;;20.43;14.77;;;37.50;23.40;;;;;;5050064;28;20513;-69
2024/02/28 12:04:42;;;;;;;23.23;18.67;;;37.30;23.20;;;;;;5055535;28;20465;-68
2024/02/28 12:07:08;;;;;;;15.43;12.93;;;37.20;22.90;;;;;;5062972;28;20431;-69
2024/02/28 12:09:34;;;;;;;13.60;11.40;;;37.90;23.50;;;;;;5054115;28;20456;-69
2024/02/28 12:12:03;;;;;;;15.60;12.63;;;38.20;23.10;;;;;;5054439;28;20489;-68
2024/02/28 12:14:32;;;;;;;23.60;19.00;;;38.50;22.50;;;;;;5054048;28;20402;-70
2024/02/28 12:16:58;;;;;;;16.10;12.73;;;38.60;22.30;;;;;;5053077;28;20518;-69
2024/02/28 12:19:24;;;;;;;18.40;14.83;;;38.80;22.30;;;;;;5054168;28;20547;-69
2024/02/28 12:21:49;;;;;;;15.30;12.10;;;38.60;21.70;;;;;;5054292;28;20174;-69
2024/02/28 12:24:15;;;;;;;14.00;11.10;;;38.70;22.90;;;;;;5053974;28;20657;-68
2024/02/28 12:26:41;;;;;;;18.80;14.53;;;38.50;23.00;;;;;;5052241;28;20229;-70